createdAt,value
2018-09-15T00:00:56.332Z,96626.00
2018-09-15T00:03:27.016Z,96630.00
2018-09-15T00:05:57.083Z,96632.00
2018-09-15T00:08:27.187Z,96629.00
2018-09-15T00:10:57.302Z,96625.00
2018-09-15T00:13:27.435Z,96631.00
2018-09-15T00:15:57.553Z,96630.00
2018-09-15T00:18:27.630Z,96627.00
2018-09-15T00:20:57.765Z,96628.00
2018-09-15T00:23:28.100Z,96635.00
2018-09-15T00:25:58.202Z,96628.00
2018-09-15T00:28:28.301Z,96629.00
2018-09-15T00:30:58.390Z,96635.00
2018-09-15T00:33:28.481Z,96634.00
2018-09-15T00:35:58.628Z,96642.00
2018-09-15T00:38:28.721Z,96631.00
2018-09-15T00:40:59.697Z,96633.00
2018-09-15T00:43:29.776Z,96634.00
2018-09-15T00:45:59.880Z,96627.00
2018-09-15T00:48:29.961Z,96631.00
2018-09-15T00:51:00.039Z,96634.00
2018-09-15T00:53:30.134Z,96634.00
2018-09-15T00:56:00.229Z,96632.00
2018-09-15T00:58:30.307Z,96626.00
2018-09-15T01:01:00.404Z,96625.00
2018-09-15T01:03:30.541Z,96630.00
2018-09-15T01:06:00.649Z,96630.00
2018-09-15T01:08:30.818Z,96626.00
2018-09-15T01:11:00.947Z,96626.00
2018-09-15T01:13:31.031Z,96620.00
2018-09-15T01:16:01.107Z,96621.00
2018-09-15T01:18:31.178Z,96633.00
2018-09-15T01:21:01.284Z,96636.00
2018-09-15T01:23:31.456Z,96625.00
2018-09-15T01:26:01.579Z,96618.00
2018-09-15T01:28:31.644Z,96622.00
2018-09-15T01:31:01.786Z,96628.00
2018-09-15T01:33:31.855Z,96626.00
2018-09-15T01:36:01.960Z,96624.00
2018-09-15T01:38:32.049Z,96636.00
2018-09-15T01:41:02.128Z,96635.00
2018-09-15T01:43:32.212Z,96640.00
2018-09-15T01:46:02.484Z,96627.00
2018-09-15T01:48:32.568Z,96634.00
2018-09-15T01:51:02.693Z,96634.00
2018-09-15T01:53:32.972Z,96637.00
2018-09-15T01:56:03.084Z,96637.00
2018-09-15T01:58:33.197Z,96627.00
2018-09-15T02:01:03.316Z,96632.00
2018-09-15T02:03:33.400Z,96634.00
2018-09-15T02:06:03.550Z,96636.00
2018-09-15T02:08:33.620Z,96637.00
2018-09-15T02:11:03.806Z,96635.00
2018-09-15T02:13:33.905Z,96626.00
2018-09-15T02:16:04.123Z,96628.00
2018-09-15T02:18:34.204Z,96630.00
2018-09-15T02:21:04.372Z,96634.00
2018-09-15T02:23:34.457Z,96630.00
2018-09-15T02:26:04.551Z,96635.00
2018-09-15T02:28:34.648Z,96640.00
2018-09-15T02:31:04.743Z,96635.00
2018-09-15T02:33:34.833Z,96642.00
2018-09-15T02:36:04.992Z,96639.00
2018-09-15T02:38:35.095Z,96637.00
2018-09-15T02:41:05.232Z,96643.00
2018-09-15T02:43:35.306Z,96640.00
2018-09-15T02:46:05.494Z,96644.00
2018-09-15T02:48:35.564Z,96650.00
2018-09-15T02:51:05.682Z,96644.00
2018-09-15T02:53:35.760Z,96643.00
2018-09-15T02:56:05.909Z,96644.00
2018-09-15T02:58:36.076Z,96644.00
2018-09-15T03:01:06.215Z,96640.00
2018-09-15T03:03:36.338Z,96644.00
2018-09-15T03:06:06.524Z,96644.00
2018-09-15T03:08:36.597Z,96643.00
2018-09-15T03:11:06.730Z,96645.00
2018-09-15T03:13:36.819Z,96643.00
2018-09-15T03:16:06.923Z,96640.00
2018-09-15T03:18:37.024Z,96639.00
2018-09-15T03:21:07.522Z,96639.00
2018-09-15T03:23:37.620Z,96642.00
2018-09-15T03:26:07.741Z,96644.00
2018-09-15T03:28:37.861Z,96641.00
2018-09-15T03:31:08.001Z,96641.00
2018-09-15T03:33:38.112Z,96635.00
2018-09-15T03:36:08.196Z,96642.00
2018-09-15T03:38:38.304Z,96642.00
2018-09-15T03:41:08.400Z,96649.00
2018-09-15T03:43:38.484Z,96650.00
2018-09-15T03:46:08.637Z,96648.00
2018-09-15T03:48:38.724Z,96653.00
2018-09-15T03:51:08.912Z,96645.00
2018-09-15T03:53:39.004Z,96644.00
2018-09-15T03:56:09.100Z,96656.00
2018-09-15T03:58:39.200Z,96664.00
2018-09-15T04:01:09.285Z,96656.00
2018-09-15T04:03:39.480Z,96661.00
2018-09-15T04:06:09.552Z,96658.00
2018-09-15T04:08:39.646Z,96656.00
2018-09-15T04:11:09.752Z,96653.00
2018-09-15T04:13:39.836Z,96659.00
2018-09-15T04:16:09.984Z,96656.00
2018-09-15T04:18:40.084Z,96659.00
2018-09-15T04:21:10.228Z,96666.00
2018-09-15T04:23:40.283Z,96668.00
2018-09-15T04:26:10.372Z,96673.00
2018-09-15T04:28:40.457Z,96673.00
2018-09-15T04:31:10.548Z,96679.00
2018-09-15T04:33:40.686Z,96682.00
2018-09-15T04:36:10.944Z,96684.00
2018-09-15T04:38:41.476Z,96690.00
2018-09-15T04:41:11.568Z,96693.00
2018-09-15T04:43:41.636Z,96686.00
2018-09-15T04:46:11.733Z,96695.00
2018-09-15T04:48:41.825Z,96697.00
2018-09-15T04:51:11.896Z,96696.00
2018-09-15T04:53:41.971Z,96699.00
2018-09-15T04:56:12.060Z,96708.00
2018-09-15T04:58:42.199Z,96725.00
2018-09-15T05:01:12.256Z,96722.00
2018-09-15T05:03:42.400Z,96724.00
2018-09-15T05:06:12.500Z,96728.00
2018-09-15T05:08:42.589Z,96725.00
2018-09-15T05:11:12.668Z,96725.00
2018-09-15T05:13:42.795Z,96734.00
2018-09-15T05:16:12.866Z,96743.00
2018-09-15T05:18:42.974Z,96753.00
2018-09-15T05:21:13.048Z,96759.00
2018-09-15T05:23:43.152Z,96763.00
2018-09-15T05:26:13.236Z,96764.00
2018-09-15T05:28:43.344Z,96771.00
2018-09-15T05:31:13.433Z,96778.00
2018-09-15T05:33:43.528Z,96782.00
2018-09-15T05:36:13.774Z,96786.00
2018-09-15T05:38:43.892Z,96786.00
2018-09-15T05:41:13.961Z,96787.00
2018-09-15T05:43:44.060Z,96790.00
2018-09-15T05:46:15.272Z,96799.00
2018-09-15T05:48:45.352Z,96813.00
2018-09-15T05:51:15.427Z,96818.00
2018-09-15T05:53:45.492Z,96808.00
2018-09-15T05:56:15.563Z,96802.00
2018-09-15T05:58:45.628Z,96818.00
2018-09-15T06:01:15.799Z,96816.00
2018-09-15T06:03:45.935Z,96817.00
2018-09-15T06:06:16.112Z,96813.00
2018-09-15T06:08:46.183Z,96804.00
2018-09-15T06:11:16.328Z,96810.00
2018-09-15T06:13:46.516Z,96815.00
2018-09-15T06:16:16.560Z,96805.00
2018-09-15T06:18:46.640Z,96799.00
2018-09-15T06:21:16.708Z,96795.00
2018-09-15T06:23:46.800Z,96804.00
2018-09-15T06:26:17.227Z,96807.00
2018-09-15T06:28:47.368Z,96811.00
2018-09-15T06:31:17.449Z,96815.00
2018-09-15T06:33:47.692Z,96819.00
2018-09-15T06:36:17.800Z,96816.00
2018-09-15T06:38:47.864Z,96819.00
2018-09-15T06:41:17.972Z,96821.00
2018-09-15T06:43:48.065Z,96814.00
2018-09-15T06:46:18.299Z,96814.00
2018-09-15T06:48:48.480Z,96820.00
2018-09-15T06:51:18.665Z,96820.00
2018-09-15T06:53:48.746Z,96819.00
2018-09-15T06:56:18.823Z,96820.00
2018-09-15T06:58:49.141Z,96828.00
2018-09-15T07:01:19.292Z,96832.00
2018-09-15T07:03:49.380Z,96827.00
2018-09-15T07:06:19.504Z,96824.00
2018-09-15T07:08:49.623Z,96829.00
2018-09-15T07:11:19.688Z,96839.00
2018-09-15T07:13:49.801Z,96836.00
2018-09-15T07:16:19.931Z,96838.00
2018-09-15T07:18:50.016Z,96832.00
2018-09-15T07:21:20.189Z,96832.00
2018-09-15T07:23:50.292Z,96836.00
2018-09-15T07:26:20.394Z,96838.00
2018-09-15T07:28:50.558Z,96833.00
2018-09-15T07:31:20.741Z,96850.00
2018-09-15T07:33:50.819Z,96848.00
2018-09-15T07:36:20.903Z,96842.00
2018-09-15T07:38:51.025Z,96851.00
2018-09-15T07:41:21.097Z,96857.00
2018-09-15T07:43:51.193Z,96851.00
2018-09-15T07:46:21.384Z,96852.00
2018-09-15T07:48:51.529Z,96857.00
2018-09-15T07:51:21.612Z,96871.00
2018-09-15T07:53:51.772Z,96874.00
2018-09-15T07:56:21.872Z,96870.00
2018-09-15T07:58:52.251Z,96868.00
2018-09-15T08:01:22.339Z,96862.00
2018-09-15T08:03:52.492Z,96869.00
2018-09-15T08:06:22.622Z,96868.00
2018-09-15T08:08:52.696Z,96871.00
2018-09-15T08:11:22.792Z,96875.00
2018-09-15T08:13:52.873Z,96871.00
2018-09-15T08:16:22.957Z,96879.00
2018-09-15T08:18:53.135Z,96871.00
2018-09-15T08:21:23.256Z,96868.00
2018-09-15T08:23:53.389Z,96874.00
2018-09-15T08:26:23.511Z,96871.00
2018-09-15T08:28:53.568Z,96885.00
2018-09-15T08:31:23.649Z,96883.00
2018-09-15T08:33:53.746Z,96879.00
2018-09-15T08:36:23.886Z,96891.00
2018-09-15T08:38:53.967Z,96891.00
2018-09-15T08:41:24.214Z,96884.00
2018-09-15T08:43:54.238Z,96888.00
2018-09-15T08:46:24.346Z,96899.00
2018-09-15T08:48:54.463Z,96896.00
2018-09-15T08:51:24.544Z,96898.00
2018-09-15T08:53:54.627Z,96898.00
2018-09-15T08:56:24.724Z,96896.00
2018-09-15T08:59:01.216Z,96894.00
2018-09-15T09:01:31.325Z,96895.00
2018-09-15T09:04:01.420Z,96904.00
2018-09-15T09:06:31.515Z,96900.00
2018-09-15T09:09:01.600Z,96902.00
2018-09-15T09:11:31.732Z,96904.00
2018-09-15T09:14:01.852Z,96909.00
2018-09-15T09:16:31.927Z,96916.00
2018-09-15T09:19:02.021Z,96920.00
2018-09-15T09:21:32.121Z,96916.00
2018-09-15T09:24:02.220Z,96926.00
2018-09-15T09:26:32.538Z,96923.00
2018-09-15T09:29:02.544Z,96929.00
2018-09-15T09:31:33.676Z,96931.00
2018-09-15T09:34:03.776Z,96926.00
2018-09-15T09:36:33.865Z,96932.00
2018-09-15T09:39:06.293Z,96933.00
2018-09-15T09:41:36.468Z,96924.00
2018-09-15T09:44:06.745Z,96923.00
2018-09-15T09:46:36.973Z,96927.00
2018-09-15T09:49:07.464Z,96926.00
2018-09-15T09:51:37.569Z,96921.00
2018-09-15T09:54:07.681Z,96922.00
2018-09-15T09:56:37.770Z,96913.00
2018-09-15T09:59:07.912Z,96918.00
2018-09-15T10:01:43.333Z,96916.00
2018-09-15T10:04:13.430Z,96919.00
2018-09-15T10:06:43.545Z,96919.00
2018-09-15T10:09:13.678Z,96918.00
2018-09-15T10:11:43.748Z,96924.00
2018-09-15T10:14:13.860Z,96922.00
2018-09-15T10:16:43.972Z,96923.00
2018-09-15T10:19:14.052Z,96927.00
2018-09-15T10:21:44.141Z,96920.00
2018-09-15T10:24:14.320Z,96923.00
2018-09-15T10:26:44.707Z,96924.00
2018-09-15T10:29:14.790Z,96929.00
2018-09-15T10:31:44.909Z,96936.00
2018-09-15T10:34:14.971Z,96943.00
2018-09-15T10:36:45.085Z,96931.00
2018-09-15T10:39:15.180Z,96932.00
2018-09-15T10:41:45.402Z,96935.00
2018-09-15T10:44:15.504Z,96939.00
2018-09-15T10:46:45.657Z,96938.00
2018-09-15T10:49:15.723Z,96939.00
2018-09-15T10:51:45.804Z,96945.00
2018-09-15T10:54:16.029Z,96948.00
2018-09-15T10:56:50.304Z,96952.00
2018-09-15T10:59:20.364Z,96956.00
2018-09-15T11:01:50.454Z,96956.00
2018-09-15T11:04:20.521Z,96958.00
2018-09-15T11:06:50.604Z,96953.00
2018-09-15T11:09:20.672Z,96955.00
2018-09-15T11:11:50.760Z,96951.00
2018-09-15T11:14:20.862Z,96948.00
2018-09-15T11:16:51.060Z,96944.00
2018-09-15T11:19:21.159Z,96953.00
2018-09-15T11:21:51.223Z,96950.00
2018-09-15T11:24:21.296Z,96951.00
2018-09-15T11:26:51.400Z,96949.00
2018-09-15T11:29:21.480Z,96948.00
2018-09-15T11:31:51.625Z,96942.00
2018-09-15T11:34:21.755Z,96949.00
2018-09-15T11:36:51.895Z,96948.00
2018-09-15T11:39:22.000Z,96945.00
2018-09-15T11:41:52.091Z,96933.00
2018-09-15T11:44:22.212Z,96944.00
2018-09-15T11:46:52.297Z,96953.00
2018-09-15T11:49:22.388Z,96944.00
2018-09-15T11:51:52.467Z,96937.00
2018-09-15T11:54:22.620Z,96938.00
2018-09-15T11:56:52.728Z,96939.00
2018-09-15T11:59:22.884Z,96950.00
2018-09-15T12:01:53.005Z,96947.00
2018-09-15T12:04:23.139Z,96949.00
2018-09-15T12:06:53.224Z,96948.00
2018-09-15T12:09:23.381Z,96939.00
2018-09-15T12:11:58.932Z,96943.00
2018-09-15T12:14:34.564Z,96941.00
2018-09-15T12:17:10.267Z,96936.00
2018-09-15T12:19:46.020Z,96928.00
2018-09-15T12:22:21.665Z,96944.00
2018-09-15T12:24:57.188Z,96943.00
2018-09-15T12:27:32.973Z,96936.00
2018-09-15T12:30:08.876Z,96942.00
2018-09-15T12:32:44.477Z,96928.00
2018-09-15T12:35:19.977Z,96930.00
2018-09-15T12:37:50.060Z,96927.00
2018-09-15T12:40:20.164Z,96916.00
2018-09-15T12:42:50.240Z,96929.00
2018-09-15T12:45:20.455Z,96926.00
2018-09-15T12:47:50.516Z,96925.00
2018-09-15T12:50:20.890Z,96926.00
2018-09-15T12:52:50.996Z,96917.00
2018-09-15T12:55:21.128Z,96916.00
2018-09-15T12:57:51.289Z,96925.00
2018-09-15T13:00:21.392Z,96912.00
2018-09-15T13:02:51.488Z,96913.00
2018-09-15T13:05:21.584Z,96911.00
2018-09-15T13:07:51.676Z,96911.00
2018-09-15T13:10:21.780Z,96907.00
2018-09-15T13:12:51.848Z,96921.00
2018-09-15T13:15:21.967Z,96916.00
2018-09-15T13:17:52.002Z,96921.00
2018-09-15T13:20:22.118Z,96913.00
2018-09-15T13:22:52.236Z,96911.00
2018-09-15T13:25:22.325Z,96917.00
2018-09-15T13:27:52.400Z,96923.00
2018-09-15T13:30:22.487Z,96922.00
2018-09-15T13:32:52.561Z,96910.00
2018-09-15T13:35:22.678Z,96911.00
2018-09-15T13:37:52.775Z,96911.00
2018-09-15T13:40:22.856Z,96912.00
2018-09-15T13:42:52.957Z,96914.00
2018-09-15T13:45:23.067Z,96911.00
2018-09-15T13:47:53.216Z,96927.00
2018-09-15T13:50:23.411Z,96904.00
2018-09-15T13:52:53.511Z,96909.00
2018-09-15T13:55:23.610Z,96910.00
2018-09-15T13:57:53.696Z,96905.00
2018-09-15T14:00:23.963Z,96906.00
2018-09-15T14:02:54.075Z,96899.00
2018-09-15T14:05:24.144Z,96892.00
2018-09-15T14:07:54.229Z,96894.00
2018-09-15T14:10:24.325Z,96896.00
2018-09-15T14:12:54.391Z,96902.00
2018-09-15T14:15:24.496Z,96896.00
2018-09-15T14:17:54.587Z,96895.00
2018-09-15T14:20:24.705Z,96896.00
2018-09-15T14:22:54.920Z,96894.00
2018-09-15T14:25:25.047Z,96895.00
2018-09-15T14:27:55.148Z,96899.00
2018-09-15T14:30:25.248Z,96901.00
2018-09-15T14:32:55.345Z,96890.00
2018-09-15T14:35:25.498Z,96889.00
2018-09-15T14:37:55.689Z,96882.00
2018-09-15T14:40:25.961Z,96878.00
2018-09-15T14:42:56.052Z,96885.00
2018-09-15T14:45:26.231Z,96896.00
2018-09-15T14:47:56.319Z,96882.00
2018-09-15T14:50:26.392Z,96889.00
2018-09-15T14:52:56.498Z,96892.00
2018-09-15T14:55:26.596Z,96887.00
2018-09-15T14:57:56.792Z,96891.00
2018-09-15T15:00:26.881Z,96888.00
2018-09-15T15:02:59.885Z,96888.00
2018-09-15T15:05:29.984Z,96886.00
2018-09-15T15:08:00.204Z,96888.00
2018-09-15T15:10:30.272Z,96891.00
2018-09-15T15:13:00.356Z,96883.00
2018-09-15T15:15:30.444Z,96886.00
2018-09-15T15:18:00.535Z,96878.00
2018-09-15T15:20:30.618Z,96885.00
2018-09-15T15:23:00.680Z,96884.00
2018-09-15T15:25:30.781Z,96881.00
2018-09-15T15:28:00.853Z,96875.00
2018-09-15T15:30:31.000Z,96883.00
2018-09-15T15:33:01.132Z,96873.00
2018-09-15T15:35:31.345Z,96879.00
2018-09-15T15:38:01.329Z,96880.00
2018-09-15T15:40:31.416Z,96884.00
2018-09-15T15:43:01.508Z,96883.00
2018-09-15T15:45:31.604Z,96886.00
2018-09-15T15:48:01.672Z,96890.00
2018-09-15T15:50:31.752Z,96894.00
2018-09-15T15:53:01.823Z,96889.00
2018-09-15T15:55:31.934Z,96881.00
2018-09-15T15:58:02.012Z,96886.00
2018-09-15T16:00:32.165Z,96881.00
2018-09-15T16:03:02.266Z,96886.00
2018-09-15T16:05:32.365Z,96878.00
2018-09-15T16:08:02.509Z,96883.00
2018-09-15T16:10:32.547Z,96888.00
2018-09-15T16:13:02.693Z,96891.00
2018-09-15T16:15:32.865Z,96885.00
2018-09-15T16:18:03.048Z,96891.00
2018-09-15T16:20:33.313Z,96885.00
2018-09-15T16:23:03.456Z,96887.00
2018-09-15T16:25:33.548Z,96894.00
2018-09-15T16:28:03.660Z,96894.00
2018-09-15T16:30:33.783Z,96894.00
2018-09-15T16:33:03.846Z,96904.00
2018-09-15T16:35:33.944Z,96904.00
2018-09-15T16:38:04.075Z,96902.00
2018-09-15T16:40:34.203Z,96903.00
2018-09-15T16:43:04.274Z,96911.00
2018-09-15T16:45:34.399Z,96914.00
2018-09-15T16:48:04.759Z,96906.00
2018-09-15T16:50:34.931Z,96907.00
2018-09-15T16:53:05.281Z,96907.00
2018-09-15T16:55:35.577Z,96911.00
2018-09-15T16:58:05.804Z,96916.00
2018-09-15T17:00:35.887Z,96911.00
2018-09-15T17:03:06.061Z,96916.00
2018-09-15T17:05:36.181Z,96917.00
2018-09-15T17:08:06.371Z,96899.00
2018-09-15T17:10:36.536Z,96911.00
2018-09-15T17:13:06.732Z,96917.00
2018-09-15T17:15:36.868Z,96914.00
2018-09-15T17:18:06.960Z,96912.00
2018-09-15T17:20:37.028Z,96924.00
2018-09-15T17:23:07.233Z,96929.00
2018-09-15T17:25:37.317Z,96938.00
2018-09-15T17:28:07.435Z,96933.00
2018-09-15T17:30:37.512Z,96940.00
2018-09-15T17:33:07.628Z,96942.00
2018-09-15T17:35:37.720Z,96946.00
2018-09-15T17:38:07.873Z,96945.00
2018-09-15T17:40:37.941Z,96954.00
2018-09-15T17:43:08.040Z,96950.00
2018-09-15T17:45:38.192Z,96945.00
2018-09-15T17:48:08.784Z,96958.00
2018-09-15T17:50:38.877Z,96955.00
2018-09-15T17:53:09.032Z,96954.00
2018-09-15T17:55:39.129Z,96956.00
2018-09-15T17:58:09.216Z,96961.00
2018-09-15T18:00:39.332Z,96971.00
2018-09-15T18:03:09.408Z,96975.00
2018-09-15T18:05:39.516Z,96983.00
2018-09-15T18:08:09.598Z,96987.00
2018-09-15T18:10:39.709Z,96979.00
2018-09-15T18:13:10.815Z,96981.00
2018-09-15T18:15:40.980Z,96987.00
2018-09-15T18:18:11.130Z,96988.00
2018-09-15T18:20:41.248Z,96993.00
2018-09-15T18:23:11.328Z,96992.00
2018-09-15T18:25:41.412Z,97006.00
2018-09-15T18:28:11.588Z,97007.00
2018-09-15T18:30:41.664Z,97008.00
2018-09-15T18:33:11.812Z,97016.00
2018-09-15T18:35:41.898Z,97005.00
2018-09-15T18:38:13.011Z,97018.00
2018-09-15T18:40:43.084Z,97017.00
2018-09-15T18:43:13.177Z,97027.00
2018-09-15T18:45:43.286Z,97037.00
2018-09-15T18:48:13.384Z,97028.00
2018-09-15T18:50:43.618Z,97036.00
2018-09-15T18:53:13.698Z,97043.00
2018-09-15T18:55:43.804Z,97037.00
2018-09-15T18:58:13.907Z,97035.00
2018-09-15T19:00:43.997Z,97034.00
2018-09-15T19:03:16.577Z,97043.00
2018-09-15T19:05:47.302Z,97043.00
2018-09-15T19:08:17.392Z,97047.00
2018-09-15T19:10:47.467Z,97043.00
2018-09-15T19:13:17.589Z,97062.00
2018-09-15T19:15:47.661Z,97065.00
2018-09-15T19:18:17.736Z,97066.00
2018-09-15T19:20:47.844Z,97071.00
2018-09-15T19:23:17.909Z,97068.00
2018-09-15T19:25:48.001Z,97065.00
2018-09-15T19:28:18.074Z,97065.00
2018-09-15T19:30:48.165Z,97070.00
2018-09-15T19:33:18.238Z,97067.00
2018-09-15T19:35:48.315Z,97076.00
2018-09-15T19:38:18.403Z,97079.00
2018-09-15T19:40:48.553Z,97075.00
2018-09-15T19:43:19.056Z,97079.00
2018-09-15T19:45:49.162Z,97084.00
2018-09-15T19:48:19.256Z,97078.00
2018-09-15T19:50:49.359Z,97085.00
2018-09-15T19:53:19.438Z,97095.00
2018-09-15T19:55:49.523Z,97091.00
2018-09-15T19:58:19.618Z,97099.00
2018-09-15T20:00:49.689Z,97093.00
2018-09-15T20:03:19.765Z,97089.00
2018-09-15T20:05:49.842Z,97100.00
2018-09-15T20:08:20.008Z,97099.00
2018-09-15T20:10:50.104Z,97106.00
2018-09-15T20:13:20.179Z,97104.00
2018-09-15T20:15:48.559Z,97104.00
2018-09-15T20:18:16.939Z,97112.00
2018-09-15T20:20:45.308Z,97116.00
2018-09-15T20:23:15.448Z,97117.00
2018-09-15T20:25:45.533Z,97115.00
2018-09-15T20:28:15.620Z,97123.00
2018-09-15T20:30:45.708Z,97122.00
2018-09-15T20:33:15.956Z,97131.00
2018-09-15T20:35:45.940Z,97136.00
2018-09-15T20:38:16.004Z,97135.00
2018-09-15T20:40:46.116Z,97131.00
2018-09-15T20:43:16.283Z,97138.00
2018-09-15T20:45:46.384Z,97140.00
2018-09-15T20:48:16.488Z,97140.00
2018-09-15T20:50:46.568Z,97146.00
2018-09-15T20:53:16.671Z,97147.00
2018-09-15T20:55:46.756Z,97148.00
2018-09-15T20:58:16.908Z,97144.00
2018-09-15T21:00:46.992Z,97161.00
2018-09-15T21:03:17.234Z,97157.00
2018-09-15T21:05:47.271Z,97157.00
2018-09-15T21:08:17.381Z,97163.00
2018-09-15T21:10:47.660Z,97165.00
2018-09-15T21:13:17.744Z,97161.00
2018-09-15T21:15:47.933Z,97159.00
2018-09-15T21:18:18.044Z,97165.00
2018-09-15T21:20:48.391Z,97165.00
2018-09-15T21:23:18.471Z,97172.00
2018-09-15T21:25:48.622Z,97170.00
2018-09-15T21:28:18.724Z,97173.00
2018-09-15T21:30:49.076Z,97169.00
2018-09-15T21:33:19.148Z,97169.00
2018-09-15T21:35:49.237Z,97173.00
2018-09-15T21:38:19.371Z,97174.00
2018-09-15T21:40:49.458Z,97176.00
2018-09-15T21:43:19.537Z,97183.00
2018-09-15T21:45:49.612Z,97181.00
2018-09-15T21:48:19.713Z,97192.00
2018-09-15T21:50:50.032Z,97186.00
2018-09-15T21:53:20.120Z,97202.00
2018-09-15T21:55:50.210Z,97194.00
2018-09-15T21:58:20.347Z,97197.00
2018-09-15T22:00:54.061Z,97193.00
2018-09-15T22:03:24.156Z,97194.00
2018-09-15T22:05:54.336Z,97190.00
2018-09-15T22:08:24.455Z,97192.00
2018-09-15T22:10:54.552Z,97183.00
2018-09-15T22:13:24.692Z,97186.00
2018-09-15T22:15:54.798Z,97180.00
2018-09-15T22:18:24.896Z,97167.00
2018-09-15T22:20:55.001Z,97170.00
2018-09-15T22:23:25.089Z,97152.00
2018-09-15T22:25:55.204Z,97154.00
2018-09-15T22:28:25.328Z,97151.00
2018-09-15T22:30:55.429Z,97161.00
2018-09-15T22:33:25.718Z,97170.00
2018-09-15T22:35:55.796Z,97172.00
2018-09-15T22:38:26.046Z,97175.00
2018-09-15T22:40:56.144Z,97172.00
2018-09-15T22:43:26.391Z,97178.00
2018-09-15T22:45:56.440Z,97180.00
2018-09-15T22:48:26.547Z,97178.00
2018-09-15T22:50:56.720Z,97181.00
2018-09-15T22:53:26.880Z,97176.00
2018-09-15T22:55:57.485Z,97186.00
2018-09-15T22:58:27.580Z,97186.00
2018-09-15T23:00:57.673Z,97188.00
2018-09-15T23:03:27.851Z,97187.00
2018-09-15T23:05:58.252Z,97180.00
2018-09-15T23:08:28.359Z,97183.00
2018-09-15T23:10:58.436Z,97178.00
2018-09-15T23:13:28.821Z,97173.00
2018-09-15T23:15:58.964Z,97175.00
2018-09-15T23:18:29.056Z,97176.00
2018-09-15T23:20:59.116Z,97182.00
2018-09-15T23:23:29.756Z,97174.00
2018-09-15T23:25:59.829Z,97173.00
2018-09-15T23:28:29.945Z,97183.00
2018-09-15T23:31:00.031Z,97181.00
2018-09-15T23:33:30.124Z,97183.00
2018-09-15T23:36:00.200Z,97186.00
2018-09-15T23:38:30.297Z,97179.00
2018-09-15T23:41:00.397Z,97177.00
2018-09-15T23:43:30.540Z,97165.00
2018-09-15T23:46:00.718Z,97171.00
2018-09-15T23:48:30.821Z,97166.00
2018-09-15T23:51:00.891Z,97165.00
2018-09-15T23:53:31.779Z,97170.00
2018-09-15T23:56:02.010Z,97173.00
2018-09-15T23:58:32.093Z,97172.00
